sensor_id;sensor_type;location;lat;lon;timestamp;P1;durP1;ratioP1;P2;durP2;ratioP2
14251;SDS011;7210;51.502;10.722;2024-02-15T00:00:24;6.77;;;6.17;;
14251;SDS011;7210;51.502;10.722;2024-02-15T00:02:52;6.63;;;6.03;;
14251;SDS011;7210;51.502;10.722;2024-02-15T00:05:20;6.17;;;5.57;;
14251;SDS011;7210;51.502;10.722;2024-02-15T00:07:49;6.30;;;5.70;;
14251;SDS011;7210;51.502;10.722;2024-02-15T00:10:16;6.33;;;5.73;;
14251;SDS011;7210;51.502;10.722;2024-02-15T00:12:43;7.20;;;6.50;;
14251;SDS011;7210;51.502;10.722;2024-02-15T00:15:10;7.10;;;6.40;;
14251;SDS011;7210;51.502;10.722;2024-02-15T00:17:37;6.60;;;6.00;;
14251;SDS011;7210;51.502;10.722;2024-02-15T00:20:05;6.60;;;6.10;;
14251;SDS011;7210;51.502;10.722;2024-02-15T00:22:36;7.10;;;6.40;;
14251;SDS011;7210;51.502;10.722;2024-02-15T00:25:08;6.50;;;5.90;;
14251;SDS011;7210;51.502;10.722;2024-02-15T00:27:36;6.50;;;5.90;;
14251;SDS011;7210;51.502;10.722;2024-02-15T00:30:04;7.20;;;6.60;;
14251;SDS011;7210;51.502;10.722;2024-02-15T00:32:32;6.70;;;6.10;;
14251;SDS011;7210;51.502;10.722;2024-02-15T00:35:08;6.23;;;5.63;;
14251;SDS011;7210;51.502;10.722;2024-02-15T00:37:36;6.23;;;5.73;;
14251;SDS011;7210;51.502;10.722;2024-02-15T00:40:04;6.00;;;5.40;;
14251;SDS011;7210;51.502;10.722;2024-02-15T00:42:33;6.37;;;5.77;;
14251;SDS011;7210;51.502;10.722;2024-02-15T00:45:01;6.00;;;5.40;;
14251;SDS011;7210;51.502;10.722;2024-02-15T00:47:28;5.20;;;4.80;;
14251;SDS011;7210;51.502;10.722;2024-02-15T00:49:55;5.47;;;4.93;;
14251;SDS011;7210;51.502;10.722;2024-02-15T00:52:23;5.50;;;5.00;;
14251;SDS011;7210;51.502;10.722;2024-02-15T00:54:52;6.10;;;5.60;;
14251;SDS011;7210;51.502;10.722;2024-02-15T00:57:19;6.37;;;5.87;;
14251;SDS011;7210;51.502;10.722;2024-02-15T00:59:46;6.00;;;5.50;;
14251;SDS011;7210;51.502;10.722;2024-02-15T01:02:13;5.97;;;5.37;;
14251;SDS011;7210;51.502;10.722;2024-02-15T01:04:41;6.40;;;5.80;;
14251;SDS011;7210;51.502;10.722;2024-02-15T01:07:10;6.03;;;5.47;;
14251;SDS011;7210;51.502;10.722;2024-02-15T01:09:44;5.70;;;5.17;;
14251;SDS011;7210;51.502;10.722;2024-02-15T01:12:15;6.37;;;5.77;;
14251;SDS011;7210;51.502;10.722;2024-02-15T01:14:42;5.43;;;4.93;;
14251;SDS011;7210;51.502;10.722;2024-02-15T01:17:10;6.17;;;5.57;;
14251;SDS011;7210;51.502;10.722;2024-02-15T01:19:37;6.87;;;6.27;;
14251;SDS011;7210;51.502;10.722;2024-02-15T01:22:04;7.83;;;6.03;;
14251;SDS011;7210;51.502;10.722;2024-02-15T01:24:31;7.00;;;5.93;;
14251;SDS011;7210;51.502;10.722;2024-02-15T01:27:02;7.13;;;6.13;;
14251;SDS011;7210;51.502;10.722;2024-02-15T01:29:33;6.20;;;5.67;;
14251;SDS011;7210;51.502;10.722;2024-02-15T01:32:01;6.90;;;6.20;;
14251;SDS011;7210;51.502;10.722;2024-02-15T01:34:30;6.97;;;6.27;;
14251;SDS011;7210;51.502;10.722;2024-02-15T01:36:57;7.10;;;6.40;;
14251;SDS011;7210;51.502;10.722;2024-02-15T01:39:24;6.90;;;6.20;;
14251;SDS011;7210;51.502;10.722;2024-02-15T01:41:52;7.13;;;6.43;;
14251;SDS011;7210;51.502;10.722;2024-02-15T01:44:21;7.17;;;6.47;;
14251;SDS011;7210;51.502;10.722;2024-02-15T01:46:51;7.27;;;6.57;;
14251;SDS011;7210;51.502;10.722;2024-02-15T01:49:19;6.73;;;6.03;;
14251;SDS011;7210;51.502;10.722;2024-02-15T01:51:47;6.63;;;6.03;;
14251;SDS011;7210;51.502;10.722;2024-02-15T01:54:19;6.93;;;6.10;;
14251;SDS011;7210;51.502;10.722;2024-02-15T01:56:46;7.30;;;6.70;;
14251;SDS011;7210;51.502;10.722;2024-02-15T01:59:14;6.60;;;6.03;;
14251;SDS011;7210;51.502;10.722;2024-02-15T02:01:42;6.83;;;6.23;;
14251;SDS011;7210;51.502;10.722;2024-02-15T02:04:12;7.50;;;6.40;;
14251;SDS011;7210;51.502;10.722;2024-02-15T02:06:39;7.70;;;6.47;;
14251;SDS011;7210;51.502;10.722;2024-02-15T02:09:07;7.17;;;5.70;;
14251;SDS011;7210;51.502;10.722;2024-02-15T02:11:39;6.33;;;5.73;;
14251;SDS011;7210;51.502;10.722;2024-02-15T02:14:07;7.03;;;6.33;;
14251;SDS011;7210;51.502;10.722;2024-02-15T02:16:34;7.63;;;6.50;;
14251;SDS011;7210;51.502;10.722;2024-02-15T02:19:01;6.93;;;6.23;;
14251;SDS011;7210;51.502;10.722;2024-02-15T02:21:34;7.93;;;6.57;;
14251;SDS011;7210;51.502;10.722;2024-02-15T02:24:04;7.27;;;5.93;;
14251;SDS011;7210;51.502;10.722;2024-02-15T02:26:41;7.53;;;6.07;;
14251;SDS011;7210;51.502;10.722;2024-02-15T02:29:09;6.57;;;5.93;;
14251;SDS011;7210;51.502;10.722;2024-02-15T02:31:36;6.73;;;6.03;;
14251;SDS011;7210;51.502;10.722;2024-02-15T02:34:08;7.03;;;6.30;;
14251;SDS011;7210;51.502;10.722;2024-02-15T02:36:35;8.03;;;7.27;;
14251;SDS011;7210;51.502;10.722;2024-02-15T02:39:08;7.17;;;6.50;;
14251;SDS011;7210;51.502;10.722;2024-02-15T02:41:38;7.33;;;6.63;;
14251;SDS011;7210;51.502;10.722;2024-02-15T02:44:14;7.27;;;6.57;;
14251;SDS011;7210;51.502;10.722;2024-02-15T02:46:42;7.90;;;7.10;;
14251;SDS011;7210;51.502;10.722;2024-02-15T02:49:09;10.27;;;7.27;;
14251;SDS011;7210;51.502;10.722;2024-02-15T02:51:36;8.20;;;7.07;;
14251;SDS011;7210;51.502;10.722;2024-02-15T02:54:08;8.87;;;6.77;;
14251;SDS011;7210;51.502;10.722;2024-02-15T02:56:38;8.83;;;7.33;;
14251;SDS011;7210;51.502;10.722;2024-02-15T02:59:08;7.63;;;6.93;;
14251;SDS011;7210;51.502;10.722;2024-02-15T03:01:35;13.43;;;7.80;;
14251;SDS011;7210;51.502;10.722;2024-02-15T03:04:04;8.27;;;7.47;;
14251;SDS011;7210;51.502;10.722;2024-02-15T03:06:32;9.27;;;7.17;;
14251;SDS011;7210;51.502;10.722;2024-02-15T03:08:59;8.23;;;7.43;;
14251;SDS011;7210;51.502;10.722;2024-02-15T03:11:26;7.80;;;7.00;;
14251;SDS011;7210;51.502;10.722;2024-02-15T03:13:54;9.03;;;8.13;;
14251;SDS011;7210;51.502;10.722;2024-02-15T03:16:24;12.57;;;7.83;;
14251;SDS011;7210;51.502;10.722;2024-02-15T03:18:56;9.53;;;7.87;;
14251;SDS011;7210;51.502;10.722;2024-02-15T03:21:23;8.53;;;7.73;;
14251;SDS011;7210;51.502;10.722;2024-02-15T03:23:52;8.97;;;7.90;;
14251;SDS011;7210;51.502;10.722;2024-02-15T03:26:26;8.40;;;7.60;;
14251;SDS011;7210;51.502;10.722;2024-02-15T03:29:03;8.27;;;7.47;;
14251;SDS011;7210;51.502;10.722;2024-02-15T03:31:38;9.37;;;8.43;;
14251;SDS011;7210;51.502;10.722;2024-02-15T03:34:05;10.73;;;8.80;;
14251;SDS011;7210;51.502;10.722;2024-02-15T03:36:31;9.03;;;8.13;;
14251;SDS011;7210;51.502;10.722;2024-02-15T03:38:58;9.10;;;8.20;;
14251;SDS011;7210;51.502;10.722;2024-02-15T03:41:27;8.30;;;7.10;;
14251;SDS011;7210;51.502;10.722;2024-02-15T03:43:57;8.73;;;7.83;;
14251;SDS011;7210;51.502;10.722;2024-02-15T03:46:26;9.37;;;8.30;;
14251;SDS011;7210;51.502;10.722;2024-02-15T03:48:53;9.37;;;8.37;;
14251;SDS011;7210;51.502;10.722;2024-02-15T03:51:22;8.80;;;7.97;;
14251;SDS011;7210;51.502;10.722;2024-02-15T03:53:49;11.07;;;7.77;;
14251;SDS011;7210;51.502;10.722;2024-02-15T03:56:17;8.93;;;8.00;;
14251;SDS011;7210;51.502;10.722;2024-02-15T03:58:46;11.63;;;8.47;;
14251;SDS011;7210;51.502;10.722;2024-02-15T04:01:20;10.63;;;8.37;;
14251;SDS011;7210;51.502;10.722;2024-02-15T04:03:48;9.33;;;8.33;;
14251;SDS011;7210;51.502;10.722;2024-02-15T04:06:15;11.13;;;9.13;;
14251;SDS011;7210;51.502;10.722;2024-02-15T04:08:43;9.20;;;8.23;;
14251;SDS011;7210;51.502;10.722;2024-02-15T04:11:14;9.40;;;8.47;;
14251;SDS011;7210;51.502;10.722;2024-02-15T04:13:41;8.30;;;7.50;;
14251;SDS011;7210;51.502;10.722;2024-02-15T04:16:09;8.97;;;8.17;;
14251;SDS011;7210;51.502;10.722;2024-02-15T04:18:36;10.77;;;9.10;;
14251;SDS011;7210;51.502;10.722;2024-02-15T04:21:05;9.00;;;8.10;;
14251;SDS011;7210;51.502;10.722;2024-02-15T04:23:32;9.23;;;8.33;;
14251;SDS011;7210;51.502;10.722;2024-02-15T04:25:59;8.70;;;7.80;;
14251;SDS011;7210;51.502;10.722;2024-02-15T04:28:26;10.77;;;8.00;;
14251;SDS011;7210;51.502;10.722;2024-02-15T04:30:56;9.27;;;8.33;;
14251;SDS011;7210;51.502;10.722;2024-02-15T04:33:23;8.87;;;7.97;;
14251;SDS011;7210;51.502;10.722;2024-02-15T04:35:50;8.40;;;7.03;;
14251;SDS011;7210;51.502;10.722;2024-02-15T04:38:19;9.47;;;8.07;;
14251;SDS011;7210;51.502;10.722;2024-02-15T04:40:50;8.63;;;7.73;;
14251;SDS011;7210;51.502;10.722;2024-02-15T04:43:19;8.87;;;7.77;;
14251;SDS011;7210;51.502;10.722;2024-02-15T04:45:46;8.00;;;7.20;;
14251;SDS011;7210;51.502;10.722;2024-02-15T04:48:13;8.30;;;7.50;;
14251;SDS011;7210;51.502;10.722;2024-02-15T04:50:40;10.27;;;7.90;;
14251;SDS011;7210;51.502;10.722;2024-02-15T04:53:07;8.57;;;7.67;;
14251;SDS011;7210;51.502;10.722;2024-02-15T04:55:37;9.03;;;7.77;;
14251;SDS011;7210;51.502;10.722;2024-02-15T04:58:08;9.67;;;7.77;;
14251;SDS011;7210;51.502;10.722;2024-02-15T05:00:38;9.33;;;8.17;;
14251;SDS011;7210;51.502;10.722;2024-02-15T05:03:14;11.73;;;8.73;;
14251;SDS011;7210;51.502;10.722;2024-02-15T05:05:42;8.40;;;7.40;;
14251;SDS011;7210;51.502;10.722;2024-02-15T05:08:09;9.03;;;8.13;;
14251;SDS011;7210;51.502;10.722;2024-02-15T05:10:38;9.30;;;8.10;;
14251;SDS011;7210;51.502;10.722;2024-02-15T05:13:05;8.70;;;7.77;;
14251;SDS011;7210;51.502;10.722;2024-02-15T05:15:38;9.00;;;8.10;;
14251;SDS011;7210;51.502;10.722;2024-02-15T05:18:08;9.50;;;7.63;;
14251;SDS011;7210;51.502;10.722;2024-02-15T05:20:38;9.13;;;7.80;;
14251;SDS011;7210;51.502;10.722;2024-02-15T05:23:06;7.60;;;6.80;;
14251;SDS011;7210;51.502;10.722;2024-02-15T05:25:33;7.83;;;7.03;;
14251;SDS011;7210;51.502;10.722;2024-02-15T05:28:02;7.60;;;6.90;;
14251;SDS011;7210;51.502;10.722;2024-02-15T05:30:38;7.00;;;6.40;;
14251;SDS011;7210;51.502;10.722;2024-02-15T05:33:05;7.60;;;6.80;;
14251;SDS011;7210;51.502;10.722;2024-02-15T05:35:35;8.57;;;7.00;;
14251;SDS011;7210;51.502;10.722;2024-02-15T05:38:04;9.37;;;7.03;;
14251;SDS011;7210;51.502;10.722;2024-02-15T05:40:32;7.10;;;6.40;;
14251;SDS011;7210;51.502;10.722;2024-02-15T05:43:00;7.00;;;6.30;;
14251;SDS011;7210;51.502;10.722;2024-02-15T05:45:29;8.43;;;6.60;;
14251;SDS011;7210;51.502;10.722;2024-02-15T05:48:02;6.43;;;5.83;;
14251;SDS011;7210;51.502;10.722;2024-02-15T05:50:33;6.97;;;6.27;;
14251;SDS011;7210;51.502;10.722;2024-02-15T05:53:01;7.13;;;6.17;;
14251;SDS011;7210;51.502;10.722;2024-02-15T05:55:29;6.57;;;5.70;;
14251;SDS011;7210;51.502;10.722;2024-02-15T05:57:58;6.63;;;6.03;;
14251;SDS011;7210;51.502;10.722;2024-02-15T06:00:28;6.90;;;6.00;;
14251;SDS011;7210;51.502;10.722;2024-02-15T06:02:55;8.37;;;6.93;;
14251;SDS011;7210;51.502;10.722;2024-02-15T06:05:22;7.30;;;5.83;;
14251;SDS011;7210;51.502;10.722;2024-02-15T06:07:56;14.00;;;12.50;;
14251;SDS011;7210;51.502;10.722;2024-02-15T06:10:24;9.13;;;6.97;;
14251;SDS011;7210;51.502;10.722;2024-02-15T06:12:56;7.33;;;6.63;;
14251;SDS011;7210;51.502;10.722;2024-02-15T06:15:24;9.30;;;7.27;;
14251;SDS011;7210;51.502;10.722;2024-02-15T06:17:53;8.73;;;7.03;;
14251;SDS011;7210;51.502;10.722;2024-02-15T06:20:20;7.60;;;6.60;;
14251;SDS011;7210;51.502;10.722;2024-02-15T06:22:48;8.10;;;7.00;;
14251;SDS011;7210;51.502;10.722;2024-02-15T06:25:18;9.93;;;7.60;;
14251;SDS011;7210;51.502;10.722;2024-02-15T06:27:46;8.73;;;7.10;;
14251;SDS011;7210;51.502;10.722;2024-02-15T06:30:14;11.30;;;7.40;;
14251;SDS011;7210;51.502;10.722;2024-02-15T06:33:00;10.63;;;8.00;;
14251;SDS011;7210;51.502;10.722;2024-02-15T06:35:45;9.50;;;6.90;;
14251;SDS011;7210;51.502;10.722;2024-02-15T06:38:29;8.07;;;7.27;;
14251;SDS011;7210;51.502;10.722;2024-02-15T06:41:14;8.27;;;7.47;;
14251;SDS011;7210;51.502;10.722;2024-02-15T06:43:41;8.17;;;7.33;;
14251;SDS011;7210;51.502;10.722;2024-02-15T06:46:20;8.63;;;7.07;;
14251;SDS011;7210;51.502;10.722;2024-02-15T06:48:49;7.23;;;6.20;;
14251;SDS011;7210;51.502;10.722;2024-02-15T06:51:16;8.57;;;7.20;;
14251;SDS011;7210;51.502;10.722;2024-02-15T06:53:44;8.30;;;7.37;;
14251;SDS011;7210;51.502;10.722;2024-02-15T06:56:11;10.10;;;7.87;;
14251;SDS011;7210;51.502;10.722;2024-02-15T06:58:39;11.00;;;7.77;;
14251;SDS011;7210;51.502;10.722;2024-02-15T07:01:06;10.20;;;7.23;;
14251;SDS011;7210;51.502;10.722;2024-02-15T07:03:33;10.37;;;7.77;;
14251;SDS011;7210;51.502;10.722;2024-02-15T07:06:02;10.47;;;7.77;;
14251;SDS011;7210;51.502;10.722;2024-02-15T07:08:31;10.03;;;8.37;;
14251;SDS011;7210;51.502;10.722;2024-02-15T07:11:02;12.40;;;9.33;;
14251;SDS011;7210;51.502;10.722;2024-02-15T07:13:30;9.47;;;8.53;;
14251;SDS011;7210;51.502;10.722;2024-02-15T07:15:57;10.53;;;8.27;;
14251;SDS011;7210;51.502;10.722;2024-02-15T07:18:24;8.27;;;7.47;;
14251;SDS011;7210;51.502;10.722;2024-02-15T07:20:51;9.60;;;8.70;;
14251;SDS011;7210;51.502;10.722;2024-02-15T07:23:20;9.77;;;8.57;;
14251;SDS011;7210;51.502;10.722;2024-02-15T07:25:50;12.27;;;9.03;;
14251;SDS011;7210;51.502;10.722;2024-02-15T07:28:19;10.73;;;9.60;;
14251;SDS011;7210;51.502;10.722;2024-02-15T07:30:46;16.13;;;11.83;;
14251;SDS011;7210;51.502;10.722;2024-02-15T07:33:16;12.07;;;9.77;;
14251;SDS011;7210;51.502;10.722;2024-02-15T07:35:43;10.20;;;7.90;;
14251;SDS011;7210;51.502;10.722;2024-02-15T07:38:10;10.60;;;7.97;;
14251;SDS011;7210;51.502;10.722;2024-02-15T07:40:40;9.33;;;7.50;;
14251;SDS011;7210;51.502;10.722;2024-02-15T07:43:07;10.73;;;8.00;;
14251;SDS011;7210;51.502;10.722;2024-02-15T07:45:34;8.97;;;7.60;;
14251;SDS011;7210;51.502;10.722;2024-02-15T07:48:02;7.57;;;6.87;;
14251;SDS011;7210;51.502;10.722;2024-02-15T07:50:31;7.50;;;6.80;;
14251;SDS011;7210;51.502;10.722;2024-02-15T07:52:58;8.77;;;6.80;;
14251;SDS011;7210;51.502;10.722;2024-02-15T07:55:25;8.50;;;7.70;;
14251;SDS011;7210;51.502;10.722;2024-02-15T07:57:54;6.93;;;6.33;;
14251;SDS011;7210;51.502;10.722;2024-02-15T08:00:23;8.17;;;7.03;;
14251;SDS011;7210;51.502;10.722;2024-02-15T08:02:53;7.43;;;6.00;;
14251;SDS011;7210;51.502;10.722;2024-02-15T08:05:20;7.93;;;6.10;;
14251;SDS011;7210;51.502;10.722;2024-02-15T08:07:47;6.83;;;6.23;;
14251;SDS011;7210;51.502;10.722;2024-02-15T08:10:14;6.83;;;5.70;;
14251;SDS011;7210;51.502;10.722;2024-02-15T08:12:45;8.97;;;6.83;;
14251;SDS011;7210;51.502;10.722;2024-02-15T08:15:18;7.10;;;6.00;;
14251;SDS011;7210;51.502;10.722;2024-02-15T08:17:46;8.50;;;5.50;;
14251;SDS011;7210;51.502;10.722;2024-02-15T08:20:13;7.77;;;6.73;;
14251;SDS011;7210;51.502;10.722;2024-02-15T08:22:46;6.60;;;5.90;;
14251;SDS011;7210;51.502;10.722;2024-02-15T08:25:14;6.43;;;5.30;;
14251;SDS011;7210;51.502;10.722;2024-02-15T08:27:46;7.28;;;6.68;;
14251;SDS011;7210;51.502;10.722;2024-02-15T08:30:15;6.30;;;5.70;;
14251;SDS011;7210;51.502;10.722;2024-02-15T08:32:44;6.87;;;5.87;;
14251;SDS011;7210;51.502;10.722;2024-02-15T08:35:13;5.93;;;5.10;;
14251;SDS011;7210;51.502;10.722;2024-02-15T08:37:40;5.53;;;5.03;;
14251;SDS011;7210;51.502;10.722;2024-02-15T08:40:09;5.70;;;5.13;;
14251;SDS011;7210;51.502;10.722;2024-02-15T08:42:38;7.00;;;5.57;;
14251;SDS011;7210;51.502;10.722;2024-02-15T08:45:06;5.23;;;4.73;;
14251;SDS011;7210;51.502;10.722;2024-02-15T08:47:36;7.50;;;5.40;;
14251;SDS011;7210;51.502;10.722;2024-02-15T08:50:06;6.07;;;5.33;;
14251;SDS011;7210;51.502;10.722;2024-02-15T08:52:35;5.70;;;4.67;;
14251;SDS011;7210;51.502;10.722;2024-02-15T08:55:03;4.93;;;4.53;;
14251;SDS011;7210;51.502;10.722;2024-02-15T08:57:32;5.23;;;4.27;;
14251;SDS011;7210;51.502;10.722;2024-02-15T08:59:59;6.20;;;4.83;;
14251;SDS011;7210;51.502;10.722;2024-02-15T09:02:32;6.40;;;4.40;;
14251;SDS011;7210;51.502;10.722;2024-02-15T09:04:59;6.47;;;4.53;;
14251;SDS011;7210;51.502;10.722;2024-02-15T09:07:28;5.73;;;5.10;;
14251;SDS011;7210;51.502;10.722;2024-02-15T09:09:55;5.47;;;4.97;;
14251;SDS011;7210;51.502;10.722;2024-02-15T09:12:23;5.50;;;4.93;;
14251;SDS011;7210;51.502;10.722;2024-02-15T09:14:50;5.83;;;4.63;;
14251;SDS011;7210;51.502;10.722;2024-02-15T09:17:17;5.60;;;4.80;;
14251;SDS011;7210;51.502;10.722;2024-02-15T09:19:46;7.43;;;4.83;;
14251;SDS011;7210;51.502;10.722;2024-02-15T09:22:15;4.87;;;4.37;;
14251;SDS011;7210;51.502;10.722;2024-02-15T09:24:43;5.67;;;4.63;;
14251;SDS011;7210;51.502;10.722;2024-02-15T09:27:10;6.53;;;4.40;;
14251;SDS011;7210;51.502;10.722;2024-02-15T09:29:38;4.63;;;4.20;;
14251;SDS011;7210;51.502;10.722;2024-02-15T09:32:05;6.33;;;5.50;;
14251;SDS011;7210;51.502;10.722;2024-02-15T09:34:38;6.53;;;5.47;;
14251;SDS011;7210;51.502;10.722;2024-02-15T09:37:05;7.93;;;6.10;;
14251;SDS011;7210;51.502;10.722;2024-02-15T09:39:32;7.00;;;5.80;;
14251;SDS011;7210;51.502;10.722;2024-02-15T09:42:04;6.27;;;5.67;;
14251;SDS011;7210;51.502;10.722;2024-02-15T09:44:31;6.83;;;5.93;;
14251;SDS011;7210;51.502;10.722;2024-02-15T09:47:01;7.30;;;5.97;;
14251;SDS011;7210;51.502;10.722;2024-02-15T09:49:33;6.00;;;5.20;;
14251;SDS011;7210;51.502;10.722;2024-02-15T09:52:04;5.63;;;5.10;;
14251;SDS011;7210;51.502;10.722;2024-02-15T09:54:38;6.20;;;5.60;;
14251;SDS011;7210;51.502;10.722;2024-02-15T09:57:10;6.83;;;6.03;;
14251;SDS011;7210;51.502;10.722;2024-02-15T09:59:38;6.47;;;5.73;;
14251;SDS011;7210;51.502;10.722;2024-02-15T10:02:05;5.80;;;5.30;;
14251;SDS011;7210;51.502;10.722;2024-02-15T10:04:36;8.67;;;5.10;;
14251;SDS011;7210;51.502;10.722;2024-02-15T10:07:04;5.63;;;4.10;;
14251;SDS011;7210;51.502;10.722;2024-02-15T10:09:34;6.03;;;4.50;;
14251;SDS011;7210;51.502;10.722;2024-02-15T10:12:02;4.27;;;3.87;;
14251;SDS011;7210;51.502;10.722;2024-02-15T10:14:33;5.00;;;4.00;;
14251;SDS011;7210;51.502;10.722;2024-02-15T10:17:05;6.27;;;4.60;;
14251;SDS011;7210;51.502;10.722;2024-02-15T10:19:34;5.37;;;4.23;;
14251;SDS011;7210;51.502;10.722;2024-02-15T10:22:05;5.33;;;4.37;;
14251;SDS011;7210;51.502;10.722;2024-02-15T10:24:34;6.37;;;4.70;;
14251;SDS011;7210;51.502;10.722;2024-02-15T10:27:02;5.47;;;4.17;;
14251;SDS011;7210;51.502;10.722;2024-02-15T10:29:33;4.63;;;4.10;;
14251;SDS011;7210;51.502;10.722;2024-02-15T10:32:01;4.80;;;4.23;;
14251;SDS011;7210;51.502;10.722;2024-02-15T10:34:35;5.63;;;4.77;;
14251;SDS011;7210;51.502;10.722;2024-02-15T10:37:11;7.00;;;4.80;;
14251;SDS011;7210;51.502;10.722;2024-02-15T10:39:41;4.80;;;4.30;;
14251;SDS011;7210;51.502;10.722;2024-02-15T10:42:09;7.40;;;4.77;;
14251;SDS011;7210;51.502;10.722;2024-02-15T10:44:38;5.37;;;4.70;;
14251;SDS011;7210;51.502;10.722;2024-02-15T10:47:08;6.00;;;4.63;;
14251;SDS011;7210;51.502;10.722;2024-02-15T10:49:35;6.07;;;4.20;;
14251;SDS011;7210;51.502;10.722;2024-02-15T10:52:03;6.17;;;4.70;;
14251;SDS011;7210;51.502;10.722;2024-02-15T10:54:42;6.13;;;4.37;;
14251;SDS011;7210;51.502;10.722;2024-02-15T10:57:19;5.00;;;4.23;;
14251;SDS011;7210;51.502;10.722;2024-02-15T10:59:53;6.60;;;4.80;;
14251;SDS011;7210;51.502;10.722;2024-02-15T11:02:27;4.90;;;4.20;;
14251;SDS011;7210;51.502;10.722;2024-02-15T11:05:03;4.10;;;3.73;;
14251;SDS011;7210;51.502;10.722;2024-02-15T11:07:35;5.90;;;3.80;;
14251;SDS011;7210;51.502;10.722;2024-02-15T11:10:04;4.33;;;3.70;;
14251;SDS011;7210;51.502;10.722;2024-02-15T11:12:35;4.73;;;3.57;;
14251;SDS011;7210;51.502;10.722;2024-02-15T11:15:05;6.77;;;3.80;;
14251;SDS011;7210;51.502;10.722;2024-02-15T11:17:47;6.80;;;3.67;;
14251;SDS011;7210;51.502;10.722;2024-02-15T11:23:27;6.00;;;3.70;;
14251;SDS011;7210;51.502;10.722;2024-02-15T11:25:55;3.73;;;3.30;;
14251;SDS011;7210;51.502;10.722;2024-02-15T11:28:37;4.47;;;3.10;;
14251;SDS011;7210;51.502;10.722;2024-02-15T11:31:10;5.00;;;3.37;;
14251;SDS011;7210;51.502;10.722;2024-02-15T11:40:27;4.07;;;2.87;;
14251;SDS011;7210;51.502;10.722;2024-02-15T11:46:24;2.90;;;2.40;;
14251;SDS011;7210;51.502;10.722;2024-02-15T11:48:56;3.83;;;2.60;;
14251;SDS011;7210;51.502;10.722;2024-02-15T11:51:28;6.73;;;3.00;;
14251;SDS011;7210;51.502;10.722;2024-02-15T11:54:05;3.83;;;2.87;;
14251;SDS011;7210;51.502;10.722;2024-02-15T11:56:52;4.53;;;2.90;;
14251;SDS011;7210;51.502;10.722;2024-02-15T11:59:38;3.67;;;2.60;;
14251;SDS011;7210;51.502;10.722;2024-02-15T12:02:22;3.90;;;2.50;;
14251;SDS011;7210;51.502;10.722;2024-02-15T12:05:06;3.27;;;2.60;;
14251;SDS011;7210;51.502;10.722;2024-02-15T12:07:51;4.77;;;2.53;;
14251;SDS011;7210;51.502;10.722;2024-02-15T12:10:37;4.30;;;2.63;;
14251;SDS011;7210;51.502;10.722;2024-02-15T12:13:26;3.87;;;2.27;;
14251;SDS011;7210;51.502;10.722;2024-02-15T12:16:15;4.57;;;2.57;;
14251;SDS011;7210;51.502;10.722;2024-02-15T12:19:01;3.43;;;2.77;;
14251;SDS011;7210;51.502;10.722;2024-02-15T12:21:28;4.40;;;2.57;;
14251;SDS011;7210;51.502;10.722;2024-02-15T12:23:56;4.63;;;2.67;;
14251;SDS011;7210;51.502;10.722;2024-02-15T12:26:24;4.83;;;2.60;;
14251;SDS011;7210;51.502;10.722;2024-02-15T12:28:56;5.63;;;2.50;;
14251;SDS011;7210;51.502;10.722;2024-02-15T12:31:24;4.87;;;2.60;;
14251;SDS011;7210;51.502;10.722;2024-02-15T12:34:02;5.73;;;2.40;;
14251;SDS011;7210;51.502;10.722;2024-02-15T12:36:31;2.67;;;2.40;;
14251;SDS011;7210;51.502;10.722;2024-02-15T12:39:02;3.17;;;2.37;;
14251;SDS011;7210;51.502;10.722;2024-02-15T12:41:36;3.23;;;2.93;;
14251;SDS011;7210;51.502;10.722;2024-02-15T12:44:05;6.50;;;2.70;;
14251;SDS011;7210;51.502;10.722;2024-02-15T12:46:33;3.97;;;2.60;;
14251;SDS011;7210;51.502;10.722;2024-02-15T12:49:09;4.80;;;3.03;;
14251;SDS011;7210;51.502;10.722;2024-02-15T12:51:54;5.93;;;2.80;;
14251;SDS011;7210;51.502;10.722;2024-02-15T12:55:12;3.83;;;2.50;;
14251;SDS011;7210;51.502;10.722;2024-02-15T12:57:41;4.37;;;2.63;;
14251;SDS011;7210;51.502;10.722;2024-02-15T13:00:12;3.13;;;2.70;;
14251;SDS011;7210;51.502;10.722;2024-02-15T13:02:43;5.43;;;2.60;;
14251;SDS011;7210;51.502;10.722;2024-02-15T13:05:13;4.63;;;2.53;;
14251;SDS011;7210;51.502;10.722;2024-02-15T13:07:40;5.90;;;2.43;;
14251;SDS011;7210;51.502;10.722;2024-02-15T13:10:07;3.37;;;2.80;;
14251;SDS011;7210;51.502;10.722;2024-02-15T13:12:36;4.90;;;2.50;;
14251;SDS011;7210;51.502;10.722;2024-02-15T13:15:04;5.77;;;2.50;;
14251;SDS011;7210;51.502;10.722;2024-02-15T13:17:37;4.27;;;2.40;;
14251;SDS011;7210;51.502;10.722;2024-02-15T13:20:05;2.93;;;2.60;;
14251;SDS011;7210;51.502;10.722;2024-02-15T13:22:38;3.60;;;2.40;;
14251;SDS011;7210;51.502;10.722;2024-02-15T13:25:06;4.17;;;2.27;;
14251;SDS011;7210;51.502;10.722;2024-02-15T13:27:35;4.00;;;2.53;;
14251;SDS011;7210;51.502;10.722;2024-02-15T13:30:04;4.00;;;2.60;;
14251;SDS011;7210;51.502;10.722;2024-02-15T13:32:35;4.53;;;2.27;;
14251;SDS011;7210;51.502;10.722;2024-02-15T13:35:03;3.17;;;2.50;;
14251;SDS011;7210;51.502;10.722;2024-02-15T13:37:40;5.43;;;2.60;;
14251;SDS011;7210;51.502;10.722;2024-02-15T13:40:09;3.77;;;2.40;;
14251;SDS011;7210;51.502;10.722;2024-02-15T13:42:44;3.80;;;2.50;;
14251;SDS011;7210;51.502;10.722;2024-02-15T13:45:17;3.77;;;2.40;;
14251;SDS011;7210;51.502;10.722;2024-02-15T13:47:45;4.43;;;2.57;;
14251;SDS011;7210;51.502;10.722;2024-02-15T13:50:14;4.67;;;2.70;;
14251;SDS011;7210;51.502;10.722;2024-02-15T13:52:44;5.53;;;2.57;;
14251;SDS011;7210;51.502;10.722;2024-02-15T13:55:13;3.63;;;2.47;;
14251;SDS011;7210;51.502;10.722;2024-02-15T13:57:43;5.00;;;2.60;;
14251;SDS011;7210;51.502;10.722;2024-02-15T14:00:12;5.03;;;3.00;;
14251;SDS011;7210;51.502;10.722;2024-02-15T14:02:47;5.03;;;3.17;;
14251;SDS011;7210;51.502;10.722;2024-02-15T14:05:15;4.47;;;2.80;;
14251;SDS011;7210;51.502;10.722;2024-02-15T14:07:58;5.97;;;3.40;;
14251;SDS011;7210;51.502;10.722;2024-02-15T14:10:27;4.83;;;3.37;;
14251;SDS011;7210;51.502;10.722;2024-02-15T14:12:56;4.77;;;3.30;;
14251;SDS011;7210;51.502;10.722;2024-02-15T14:15:24;6.47;;;3.57;;
14251;SDS011;7210;51.502;10.722;2024-02-15T14:17:52;7.07;;;3.67;;
14251;SDS011;7210;51.502;10.722;2024-02-15T14:20:26;6.03;;;3.47;;
14251;SDS011;7210;51.502;10.722;2024-02-15T14:22:53;5.50;;;3.40;;
14251;SDS011;7210;51.502;10.722;2024-02-15T14:25:23;5.60;;;4.00;;
14251;SDS011;7210;51.502;10.722;2024-02-15T14:27:53;9.60;;;3.57;;
14251;SDS011;7210;51.502;10.722;2024-02-15T14:30:22;5.27;;;3.87;;
14251;SDS011;7210;51.502;10.722;2024-02-15T14:33:14;5.17;;;3.43;;
14251;SDS011;7210;51.502;10.722;2024-02-15T14:35:44;3.83;;;3.50;;
14251;SDS011;7210;51.502;10.722;2024-02-15T14:38:12;4.17;;;3.13;;
14251;SDS011;7210;51.502;10.722;2024-02-15T14:40:43;3.83;;;3.00;;
14251;SDS011;7210;51.502;10.722;2024-02-15T14:43:15;5.67;;;3.30;;
14251;SDS011;7210;51.502;10.722;2024-02-15T14:45:46;4.73;;;2.70;;
14251;SDS011;7210;51.502;10.722;2024-02-15T14:48:14;6.03;;;3.37;;
14251;SDS011;7210;51.502;10.722;2024-02-15T14:50:43;5.30;;;3.23;;
14251;SDS011;7210;51.502;10.722;2024-02-15T14:53:10;6.00;;;3.77;;
14251;SDS011;7210;51.502;10.722;2024-02-15T14:55:46;7.13;;;3.43;;
14251;SDS011;7210;51.502;10.722;2024-02-15T14:58:14;5.37;;;3.50;;
14251;SDS011;7210;51.502;10.722;2024-02-15T15:00:41;6.60;;;3.90;;
14251;SDS011;7210;51.502;10.722;2024-02-15T15:03:09;7.47;;;3.87;;
14251;SDS011;7210;51.502;10.722;2024-02-15T15:05:38;5.67;;;4.00;;
14251;SDS011;7210;51.502;10.722;2024-02-15T15:08:23;5.63;;;4.13;;
14251;SDS011;7210;51.502;10.722;2024-02-15T15:11:10;8.00;;;4.17;;
14251;SDS011;7210;51.502;10.722;2024-02-15T15:13:54;5.57;;;4.40;;
14251;SDS011;7210;51.502;10.722;2024-02-15T15:16:21;6.70;;;4.43;;